Aviation Digital Data Service (ADDS)

Output produced by METARs form (1801 UTC 02 December 2016)
found at http://aviationweather.gov/adds/metars/
 
KCAK 021728Z 0218/0318 26010G20KT P6SM SCT025 OVC035 
     TEMPO 0218/0222 OVC025 
     FM030300 28009KT P6SM OVC025 
     FM030700 29006KT 6SM HZ OVC015 
     FM031200 28007KT 4SM HZ OVC015 
     FM031600 28008KT P6SM OVC015